Time;durP1;ratioP1;P1;durP2;ratioP2;P2;SDS_P1;SDS_P2;PMS_P1;PMS_P2;Temp;Humidity;BMP_temperature;BMP_pressure;BME280_temperature;BME280_humidity;BME280_pressure;Samples;Min_cycle;Max_cycle;Signal;HPM_P1;HPM_P2
2023/06/22 00:00:58;;;;;;;0.88;0.88;;;23.00;63.90;;;;;;5031535;28;20045;-60
2023/06/22 00:03:25;;;;;;;0.65;0.50;;;23.00;64.00;;;;;;5030991;28;20029;-60
2023/06/22 00:05:52;;;;;;;0.50;0.50;;;23.00;64.00;;;;;;5011665;28;20125;-60
2023/06/22 00:08:18;;;;;;;1.45;0.60;;;22.90;64.00;;;;;;5029827;28;20116;-60
2023/06/22 00:10:45;;;;;;;0.60;0.60;;;22.90;63.90;;;;;;5020101;28;20494;-60
2023/06/22 00:13:11;;;;;;;1.88;0.60;;;23.00;63.90;;;;;;5030501;28;20485;-60
2023/06/22 00:15:39;;;;;;;0.63;0.50;;;23.00;63.80;;;;;;5031008;28;20033;-60
2023/06/22 00:18:06;;;;;;;1.98;0.90;;;22.90;63.80;;;;;;5030869;28;20044;-60
2023/06/22 00:20:32;;;;;;;0.85;0.52;;;22.90;63.90;;;;;;5030807;28;20558;-60
2023/06/22 00:22:59;;;;;;;0.50;0.50;;;22.90;63.80;;;;;;5012599;28;20029;-60
2023/06/22 00:25:25;;;;;;;1.00;0.82;;;22.90;64.00;;;;;;5012487;28;20049;-60
2023/06/22 00:27:51;;;;;;;1.10;0.98;;;22.90;64.10;;;;;;5030476;28;20484;-60
2023/06/22 00:30:17;;;;;;;1.17;1.05;;;22.90;64.30;;;;;;5031182;28;20171;-60
2023/06/22 00:32:44;;;;;;;1.13;0.90;;;22.80;64.40;;;;;;5012661;28;20039;-60
2023/06/22 00:35:10;;;;;;;1.48;0.90;;;22.80;64.50;;;;;;5030389;28;20022;-60
2023/06/22 00:37:36;;;;;;;2.35;0.98;;;22.70;64.50;;;;;;5012876;28;20044;-60
2023/06/22 00:40:04;;;;;;;2.15;1.08;;;22.70;64.60;;;;;;5030285;28;20033;-60
2023/06/22 00:42:30;;;;;;;2.13;0.82;;;22.70;64.80;;;;;;5027287;28;20021;-60
2023/06/22 00:44:56;;;;;;;1.00;0.73;;;22.60;64.80;;;;;;5030467;28;20026;-60
2023/06/22 00:47:21;;;;;;;0.75;0.75;;;22.60;64.80;;;;;;5027168;28;20029;-60
2023/06/22 00:49:51;;;;;;;0.80;0.73;;;22.60;64.90;;;;;;5029723;28;20025;-60
2023/06/22 00:52:20;;;;;;;1.40;0.82;;;22.50;64.90;;;;;;5030407;28;20384;-60
2023/06/22 00:54:50;;;;;;;0.65;0.60;;;22.50;65.00;;;;;;5030171;28;20416;-62
2023/06/22 00:57:18;;;;;;;0.52;0.50;;;22.50;65.10;;;;;;5030222;28;20501;-62
2023/06/22 00:59:44;;;;;;;1.27;0.80;;;22.50;65.10;;;;;;5011102;28;20171;-62
2023/06/22 01:02:10;;;;;;;0.70;0.70;;;22.50;65.10;;;;;;5027758;28;20095;-62
2023/06/22 01:04:38;;;;;;;0.70;0.70;;;22.40;65.10;;;;;;5030377;28;20496;-62
2023/06/22 01:07:19;;;;;;;6.32;0.73;;;22.40;65.20;;;;;;5012081;28;20034;-63
2023/06/22 01:10:08;;;;;;;0.88;0.65;;;22.40;65.30;;;;;;5012066;28;21221;-62
2023/06/22 01:12:55;;;;;;;0.80;0.80;;;22.30;65.40;;;;;;5026955;28;20445;-62
2023/06/22 01:15:33;;;;;;;0.85;0.75;;;22.20;65.60;;;;;;5029078;28;20028;-62
2023/06/22 01:18:00;;;;;;;0.70;0.70;;;22.20;65.80;;;;;;5028273;28;20534;-60
2023/06/22 01:20:27;;;;;;;1.00;0.60;;;22.10;65.90;;;;;;5005609;28;20449;-61
2023/06/22 01:23:18;;;;;;;1.55;0.93;;;22.00;66.00;;;;;;5009913;28;20029;-61
2023/06/22 01:26:04;;;;;;;1.00;0.90;;;22.00;66.10;;;;;;5029340;28;20033;-60
2023/06/22 01:28:49;;;;;;;1.02;0.70;;;22.00;66.30;;;;;;5029719;28;20032;-61
2023/06/22 01:31:19;;;;;;;1.08;0.98;;;21.90;66.50;;;;;;5029369;28;20057;-60
2023/06/22 01:33:49;;;;;;;2.95;0.70;;;21.90;66.60;;;;;;5029271;28;20445;-60
2023/06/22 01:36:16;;;;;;;0.63;0.60;;;21.90;66.70;;;;;;5028574;28;20019;-60
2023/06/22 01:38:43;;;;;;;1.38;0.52;;;21.80;66.70;;;;;;5011364;28;20115;-62
2023/06/22 01:41:09;;;;;;;0.63;0.63;;;21.80;66.70;;;;;;5027053;28;20029;-62
2023/06/22 01:43:36;;;;;;;0.85;0.80;;;21.80;66.70;;;;;;5029302;28;20075;-62
2023/06/22 01:46:03;;;;;;;1.05;0.95;;;21.80;66.70;;;;;;5029573;28;20040;-62
2023/06/22 01:48:29;;;;;;;1.10;1.00;;;21.80;66.80;;;;;;5028836;28;20033;-61
2023/06/22 01:50:55;;;;;;;1.13;1.02;;;21.80;66.80;;;;;;5021870;28;20035;-62
2023/06/22 01:53:22;;;;;;;1.90;0.88;;;21.80;66.90;;;;;;5029024;28;20033;-62
2023/06/22 01:55:48;;;;;;;1.33;1.15;;;21.70;67.00;;;;;;5028896;28;20038;-62
2023/06/22 01:58:14;;;;;;;1.70;0.75;;;21.70;67.00;;;;;;5023356;28;20033;-62
2023/06/22 02:00:45;;;;;;;1.13;1.02;;;21.70;67.10;;;;;;5009003;28;20067;-62
2023/06/22 02:03:18;;;;;;;0.65;0.65;;;21.70;67.30;;;;;;5007779;28;20034;-62
2023/06/22 02:05:54;;;;;;;1.30;0.95;;;21.70;67.20;;;;;;5010987;28;20120;-62
2023/06/22 02:08:23;;;;;;;1.50;0.90;;;21.70;67.30;;;;;;5028569;28;20478;-60
2023/06/22 02:10:51;;;;;;;0.55;0.55;;;21.60;67.30;;;;;;5028946;28;20033;-60
2023/06/22 02:13:17;;;;;;;1.38;1.00;;;21.60;67.50;;;;;;5028376;28;20021;-60
2023/06/22 02:15:44;;;;;;;1.55;1.13;;;21.60;67.40;;;;;;5029245;28;20115;-61
2023/06/22 02:18:10;;;;;;;1.75;0.80;;;21.60;67.50;;;;;;5011073;28;20492;-61
2023/06/22 02:20:39;;;;;;;1.85;1.13;;;21.60;67.50;;;;;;5027912;28;20042;-62
2023/06/22 02:23:06;;;;;;;0.82;0.60;;;21.60;67.60;;;;;;5027791;28;20029;-59
2023/06/22 02:25:33;;;;;;;0.82;0.70;;;21.50;67.70;;;;;;5029124;28;20056;-61
2023/06/22 02:27:59;;;;;;;1.20;0.93;;;21.50;67.80;;;;;;5008150;28;20030;-62
2023/06/22 02:30:24;;;;;;;1.75;0.85;;;21.50;67.80;;;;;;5028734;28;20200;-62
2023/06/22 02:32:58;;;;;;;0.95;0.93;;;21.50;67.90;;;;;;5028686;28;20493;-60
2023/06/22 02:35:31;;;;;;;1.73;1.42;;;21.50;68.00;;;;;;5028642;28;20076;-60
2023/06/22 02:38:02;;;;;;;1.05;0.90;;;21.40;68.10;;;;;;5028823;28;20022;-60
2023/06/22 02:40:29;;;;;;;1.55;1.10;;;21.40;68.20;;;;;;5009751;28;20047;-60
2023/06/22 02:42:55;;;;;;;1.02;0.80;;;21.40;68.30;;;;;;5023909;28;20033;-60
2023/06/22 02:45:21;;;;;;;2.38;1.08;;;21.30;68.50;;;;;;5028498;28;20381;-60
2023/06/22 02:47:47;;;;;;;1.00;0.90;;;21.30;68.60;;;;;;5010774;28;20032;-62
2023/06/22 02:50:14;;;;;;;1.77;1.10;;;21.30;68.80;;;;;;5027582;28;20038;-60
2023/06/22 02:52:39;;;;;;;2.00;1.33;;;21.30;68.90;;;;;;5028235;28;20026;-61
2023/06/22 02:55:07;;;;;;;1.80;1.13;;;21.30;69.00;;;;;;5027316;28;20543;-61
2023/06/22 02:57:32;;;;;;;0.90;0.90;;;21.20;69.00;;;;;;5028570;28;20081;-62
2023/06/22 02:59:59;;;;;;;1.55;1.42;;;21.20;69.10;;;;;;5028218;28;20041;-62
2023/06/22 03:02:26;;;;;;;1.10;0.85;;;21.20;69.10;;;;;;5028402;28;20043;-62
2023/06/22 03:04:53;;;;;;;2.72;1.40;;;21.30;69.20;;;;;;5028473;28;20025;-62
2023/06/22 03:07:19;;;;;;;1.38;0.98;;;21.30;69.20;;;;;;5028615;28;20125;-62
2023/06/22 03:09:45;;;;;;;1.50;1.40;;;21.30;69.30;;;;;;5029768;28;20057;-61
2023/06/22 03:12:11;;;;;;;2.15;1.23;;;21.30;69.40;;;;;;5031917;28;20057;-60
2023/06/22 03:14:38;;;;;;;3.97;1.65;;;21.30;69.40;;;;;;5012332;28;20060;-63
2023/06/22 03:17:05;;;;;;;2.17;1.48;;;21.30;69.70;;;;;;5014722;28;20090;-61
2023/06/22 03:19:31;;;;;;;3.50;1.50;;;21.30;69.80;;;;;;5028273;28;20028;-60
2023/06/22 03:22:00;;;;;;;4.00;2.10;;;21.20;69.80;;;;;;5031251;28;20041;-60
2023/06/22 03:24:28;;;;;;;2.08;1.73;;;21.20;70.00;;;;;;5025780;28;20041;-62
2023/06/22 03:26:54;;;;;;;2.45;1.27;;;21.20;70.10;;;;;;5014678;28;20383;-62
2023/06/22 03:29:20;;;;;;;3.55;1.83;;;21.20;70.20;;;;;;5030028;28;20071;-60
2023/06/22 03:31:46;;;;;;;3.47;1.67;;;21.20;70.30;;;;;;5029178;28;20496;-60
2023/06/22 03:34:11;;;;;;;1.45;1.33;;;21.20;70.40;;;;;;5031570;28;20124;-60
2023/06/22 03:36:37;;;;;;;4.43;2.20;;;21.20;70.30;;;;;;5011889;28;20493;-60
2023/06/22 03:39:03;;;;;;;4.57;1.90;;;21.20;70.50;;;;;;5031945;28;20068;-61
2023/06/22 03:41:28;;;;;;;2.75;1.90;;;21.10;70.60;;;;;;4997388;28;20037;-61
2023/06/22 03:43:54;;;;;;;3.67;2.45;;;21.10;70.70;;;;;;5031836;28;20041;-62
2023/06/22 03:46:20;;;;;;;3.80;2.08;;;21.10;70.80;;;;;;5030200;28;20116;-60
2023/06/22 03:48:45;;;;;;;3.58;2.20;;;21.10;70.90;;;;;;5013098;28;20527;-62
2023/06/22 03:51:11;;;;;;;2.95;2.10;;;21.10;71.00;;;;;;5029038;28;20038;-62
2023/06/22 03:53:37;;;;;;;1.90;1.50;;;21.10;71.10;;;;;;5030669;28;20160;-62
2023/06/22 03:56:03;;;;;;;2.72;1.92;;;21.10;71.00;;;;;;5030628;28;20115;-60
2023/06/22 03:58:32;;;;;;;2.88;1.65;;;21.10;71.00;;;;;;5026129;28;20037;-62
2023/06/22 04:00:59;;;;;;;2.72;1.92;;;21.10;71.00;;;;;;5029724;28;20500;-60
2023/06/22 04:03:25;;;;;;;3.33;2.00;;;21.10;71.10;;;;;;5030597;28;20029;-60
2023/06/22 04:05:51;;;;;;;3.03;2.13;;;21.10;71.20;;;;;;5029747;28;20025;-60
2023/06/22 04:08:16;;;;;;;3.30;2.20;;;21.10;71.50;;;;;;5030532;28;20022;-61
2023/06/22 04:10:42;;;;;;;3.47;2.30;;;21.10;71.60;;;;;;5031300;28;20049;-60
2023/06/22 04:13:08;;;;;;;4.38;2.67;;;21.10;71.70;;;;;;4996228;28;20564;-61
2023/06/22 04:15:34;;;;;;;4.68;2.80;;;21.00;71.80;;;;;;5031287;28;20025;-61
2023/06/22 04:18:00;;;;;;;4.15;2.30;;;21.10;72.00;;;;;;5028854;28;20041;-62
2023/06/22 04:20:25;;;;;;;3.72;2.53;;;21.00;72.00;;;;;;5029991;28;20029;-61
2023/06/22 04:22:53;;;;;;;3.33;2.28;;;21.00;72.00;;;;;;5030175;28;20095;-61
2023/06/22 04:25:19;;;;;;;2.75;2.22;;;21.00;72.10;;;;;;5029965;28;20025;-60
2023/06/22 04:27:46;;;;;;;5.05;3.38;;;21.10;72.10;;;;;;5027042;28;20141;-62
2023/06/22 04:30:14;;;;;;;3.35;2.22;;;21.10;72.20;;;;;;5007737;28;20045;-63
2023/06/22 04:32:40;;;;;;;3.53;2.67;;;21.10;72.30;;;;;;5030741;28;20031;-62
2023/06/22 04:35:07;;;;;;;3.58;2.67;;;21.10;72.20;;;;;;5030792;28;20017;-62
2023/06/22 04:37:33;;;;;;;5.30;3.10;;;21.20;72.20;;;;;;5009851;28;20030;-61
2023/06/22 04:39:59;;;;;;;6.40;3.00;;;21.20;72.20;;;;;;5030182;28;20040;-62
2023/06/22 04:42:27;;;;;;;5.63;2.50;;;21.30;72.30;;;;;;5030119;28;20104;-60
2023/06/22 04:44:53;;;;;;;4.03;2.78;;;21.30;72.30;;;;;;5030670;28;20022;-61
2023/06/22 04:47:18;;;;;;;4.30;2.95;;;21.30;72.10;;;;;;5029450;28;20042;-63
2023/06/22 04:49:44;;;;;;;4.70;2.28;;;21.40;72.10;;;;;;5030188;28;20038;-63
2023/06/22 04:52:11;;;;;;;3.50;2.08;;;21.40;72.10;;;;;;5012119;28;20063;-63
2023/06/22 04:54:38;;;;;;;4.38;2.63;;;21.50;72.00;;;;;;5030280;28;20051;-63
2023/06/22 04:57:10;;;;;;;6.85;3.35;;;21.60;72.00;;;;;;5029995;28;20077;-63
2023/06/22 04:59:38;;;;;;;4.53;2.22;;;21.60;72.00;;;;;;5030966;28;20037;-62
2023/06/22 05:02:05;;;;;;;4.20;2.65;;;21.70;72.10;;;;;;5028004;28;20459;-62
2023/06/22 05:04:31;;;;;;;3.97;2.63;;;21.70;72.10;;;;;;5030386;28;20033;-62
2023/06/22 05:06:58;;;;;;;3.05;2.03;;;21.80;72.10;;;;;;5029464;28;20034;-60
2023/06/22 05:09:24;;;;;;;3.05;2.30;;;21.80;72.00;;;;;;5012140;28;20042;-60
2023/06/22 05:11:51;;;;;;;3.22;2.33;;;21.90;71.90;;;;;;5028657;28;20091;-60
2023/06/22 05:14:17;;;;;;;4.72;2.63;;;21.90;71.80;;;;;;5012267;28;20488;-62
2023/06/22 05:16:44;;;;;;;4.20;2.22;;;22.00;71.80;;;;;;5029705;28;20026;-62
2023/06/22 05:19:10;;;;;;;3.95;2.20;;;22.10;71.70;;;;;;5030730;28;20037;-62
2023/06/22 05:21:36;;;;;;;3.38;2.72;;;22.10;71.60;;;;;;5007715;28;20082;-60
2023/06/22 05:24:02;;;;;;;5.57;2.17;;;22.20;71.60;;;;;;5010820;28;20029;-60
2023/06/22 05:26:30;;;;;;;3.60;1.98;;;22.20;71.50;;;;;;5023759;28;20452;-59
2023/06/22 05:28:56;;;;;;;3.17;1.70;;;22.20;71.40;;;;;;5011326;28;20175;-63
2023/06/22 05:31:22;;;;;;;3.70;1.95;;;22.30;71.30;;;;;;5028609;28;20528;-63
2023/06/22 05:33:51;;;;;;;3.60;2.30;;;22.40;71.20;;;;;;5029334;28;20111;-63
2023/06/22 05:36:19;;;;;;;2.72;1.63;;;22.50;71.00;;;;;;5029265;28;20028;-62
2023/06/22 05:38:45;;;;;;;3.72;2.10;;;22.50;70.70;;;;;;5028909;28;20400;-66
2023/06/22 05:41:11;;;;;;;3.88;1.98;;;22.60;70.60;;;;;;5029758;28;20033;-66
2023/06/22 05:43:37;;;;;;;3.17;2.10;;;22.60;70.50;;;;;;5029302;28;20455;-65
2023/06/22 05:46:03;;;;;;;4.10;2.10;;;22.70;70.30;;;;;;5012112;28;20036;-58
2023/06/22 05:48:29;;;;;;;3.58;1.98;;;22.80;70.10;;;;;;5013382;28;20034;-57
2023/06/22 05:50:55;;;;;;;5.18;1.75;;;22.80;69.90;;;;;;5028230;28;20045;-66
2023/06/22 05:53:21;;;;;;;3.08;1.42;;;22.90;69.80;;;;;;5028953;28;20492;-67
2023/06/22 05:55:47;;;;;;;4.55;2.50;;;23.00;69.60;;;;;;5029584;28;20127;-66
2023/06/22 05:58:13;;;;;;;6.88;2.30;;;23.10;69.50;;;;;;5011997;28;20066;-67
2023/06/22 06:00:39;;;;;;;2.35;1.80;;;23.10;69.30;;;;;;4993590;28;20069;-65
2023/06/22 06:03:06;;;;;;;2.60;1.77;;;23.20;69.10;;;;;;5027600;28;20026;-57
2023/06/22 06:05:33;;;;;;;2.25;2.00;;;23.30;68.90;;;;;;5029266;28;20127;-57
2023/06/22 06:08:04;;;;;;;2.17;1.60;;;23.30;68.80;;;;;;5029088;28;20033;-58
2023/06/22 06:10:30;;;;;;;4.63;2.35;;;23.40;68.60;;;;;;5029916;28;20562;-58
2023/06/22 06:12:56;;;;;;;2.75;1.90;;;23.40;68.50;;;;;;5011316;28;20448;-57
2023/06/22 06:15:22;;;;;;;3.33;1.92;;;23.50;68.30;;;;;;5029330;28;20040;-57
2023/06/22 06:17:53;;;;;;;2.17;1.65;;;23.50;68.10;;;;;;5029492;28;20029;-57
2023/06/22 06:20:21;;;;;;;2.53;1.95;;;23.60;68.00;;;;;;5028029;28;20024;-63
2023/06/22 06:22:48;;;;;;;2.42;1.63;;;23.70;67.80;;;;;;5027009;28;20087;-66
2023/06/22 06:25:19;;;;;;;2.58;1.85;;;23.70;67.60;;;;;;5009324;28;20036;-58
2023/06/22 06:27:46;;;;;;;1.80;1.52;;;23.80;67.50;;;;;;5029856;28;20030;-58
2023/06/22 06:30:14;;;;;;;3.13;2.08;;;23.80;67.30;;;;;;5029356;28;20048;-57
2023/06/22 06:32:40;;;;;;;2.47;1.88;;;24.00;67.20;;;;;;5028854;28;20041;-58
2023/06/22 06:35:08;;;;;;;2.88;1.85;;;24.00;67.00;;;;;;5028534;28;20021;-58
2023/06/22 06:37:42;;;;;;;2.22;1.85;;;24.00;66.90;;;;;;5029049;28;20060;-57
2023/06/22 06:40:10;;;;;;;2.30;1.92;;;24.10;66.80;;;;;;5010972;28;20051;-57
2023/06/22 06:42:47;;;;;;;1.80;1.60;;;24.20;66.70;;;;;;5011626;28;20045;-57
2023/06/22 06:45:16;;;;;;;5.28;1.95;;;24.30;66.50;;;;;;5026996;28;20033;-66
2023/06/22 06:47:42;;;;;;;2.47;1.65;;;24.40;66.20;;;;;;5032626;28;20416;-58
2023/06/22 06:50:09;;;;;;;3.08;1.75;;;24.50;66.00;;;;;;5032509;28;20424;-67
2023/06/22 06:52:35;;;;;;;2.50;1.70;;;24.60;65.80;;;;;;5032850;28;20018;-57
2023/06/22 06:55:02;;;;;;;1.73;1.52;;;24.80;65.60;;;;;;5032564;28;20112;-57
2023/06/22 06:57:28;;;;;;;2.35;1.60;;;24.90;65.30;;;;;;5014815;28;20057;-66
2023/06/22 06:59:57;;;;;;;2.03;1.83;;;24.90;65.20;;;;;;5014244;28;20064;-66
2023/06/22 07:02:24;;;;;;;1.83;1.60;;;25.00;65.20;;;;;;5032428;28;20025;-67
2023/06/22 07:04:49;;;;;;;2.30;1.38;;;25.00;65.00;;;;;;5032566;28;20548;-67
2023/06/22 07:07:15;;;;;;;2.28;1.30;;;25.10;64.90;;;;;;5032589;28;20030;-68
2023/06/22 07:09:41;;;;;;;1.70;1.20;;;25.20;64.80;;;;;;5032251;28;20508;-66
2023/06/22 07:12:07;;;;;;;2.47;1.55;;;25.30;64.70;;;;;;5031376;28;20109;-65
2023/06/22 07:14:33;;;;;;;2.03;1.50;;;25.30;64.50;;;;;;5033062;28;20488;-60
2023/06/22 07:16:59;;;;;;;1.30;1.15;;;25.30;64.50;;;;;;5031721;28;20022;-63
2023/06/22 07:19:26;;;;;;;2.38;1.60;;;25.30;64.70;;;;;;5032638;28;20638;-63
2023/06/22 07:21:53;;;;;;;1.85;1.17;;;25.20;64.80;;;;;;5030605;28;20148;-63
2023/06/22 07:24:22;;;;;;;1.90;1.48;;;25.20;64.90;;;;;;5014508;28;20041;-63
2023/06/22 07:26:49;;;;;;;2.28;1.65;;;25.20;64.70;;;;;;4995286;28;20493;-63
2023/06/22 07:29:26;;;;;;;1.58;1.30;;;25.30;64.70;;;;;;5031158;28;20034;-63
2023/06/22 07:31:52;;;;;;;2.15;1.40;;;25.30;64.60;;;;;;5026776;28;20438;-63
2023/06/22 07:34:18;;;;;;;1.27;1.17;;;25.40;64.50;;;;;;5014411;28;20044;-63
2023/06/22 07:36:45;;;;;;;1.90;1.55;;;25.40;64.30;;;;;;5014392;28;20034;-61
2023/06/22 07:39:11;;;;;;;3.70;1.60;;;25.40;64.20;;;;;;5031592;28;20394;-61
2023/06/22 07:41:38;;;;;;;2.75;1.55;;;25.50;64.20;;;;;;5031684;28;20504;-61
2023/06/22 07:44:04;;;;;;;2.05;1.67;;;25.50;64.20;;;;;;5014286;28;20145;-61
2023/06/22 07:46:30;;;;;;;3.70;2.25;;;25.50;64.10;;;;;;5032180;28;20163;-60
2023/06/22 07:48:57;;;;;;;2.75;1.88;;;25.60;63.90;;;;;;5031821;28;20141;-61
2023/06/22 07:51:23;;;;;;;1.33;1.08;;;25.60;63.80;;;;;;5031639;28;20033;-60
2023/06/22 07:53:49;;;;;;;1.50;1.27;;;25.70;63.70;;;;;;5029752;28;20044;-61
2023/06/22 07:56:20;;;;;;;1.48;1.33;;;25.70;63.60;;;;;;5030567;28;20072;-63
2023/06/22 07:58:46;;;;;;;1.75;1.20;;;25.70;63.50;;;;;;5031665;28;20041;-63
2023/06/22 08:01:12;;;;;;;1.52;1.30;;;25.70;63.40;;;;;;5029954;28;20041;-63
2023/06/22 08:03:39;;;;;;;1.60;1.45;;;25.80;63.40;;;;;;5028313;28;20500;-61
2023/06/22 08:06:05;;;;;;;1.35;1.17;;;25.80;63.30;;;;;;5021002;28;20042;-61
2023/06/22 08:08:31;;;;;;;2.50;1.50;;;25.80;63.20;;;;;;5030624;28;20048;-61
2023/06/22 08:10:58;;;;;;;2.38;1.75;;;25.80;63.20;;;;;;5027025;28;20500;-61
2023/06/22 08:13:23;;;;;;;1.40;1.30;;;25.80;63.30;;;;;;5027947;28;20469;-61
2023/06/22 08:15:49;;;;;;;1.58;1.48;;;25.80;63.30;;;;;;5031344;28;20027;-63
2023/06/22 08:18:16;;;;;;;1.88;1.40;;;25.90;63.20;;;;;;5012753;28;20022;-63
2023/06/22 08:20:42;;;;;;;1.88;1.38;;;25.90;63.20;;;;;;5026452;28;20032;-63
2023/06/22 08:23:07;;;;;;;1.35;1.05;;;26.00;63.00;;;;;;5024147;28;20541;-63
2023/06/22 08:25:34;;;;;;;3.17;1.20;;;26.10;62.80;;;;;;5030014;28;20112;-63
2023/06/22 08:28:01;;;;;;;1.83;1.10;;;26.10;62.60;;;;;;5030316;28;20397;-63
2023/06/22 08:30:26;;;;;;;1.75;1.40;;;26.10;62.30;;;;;;5009061;28;20039;-63
2023/06/22 08:32:53;;;;;;;1.63;1.20;;;26.10;62.20;;;;;;5009373;28;20026;-63
2023/06/22 08:35:19;;;;;;;1.50;1.30;;;26.20;62.20;;;;;;5012783;28;20043;-63
2023/06/22 08:37:52;;;;;;;1.13;1.00;;;26.20;62.10;;;;;;5025040;28;20030;-63
2023/06/22 08:40:19;;;;;;;1.58;1.48;;;26.20;62.00;;;;;;5004047;28;20040;-63
2023/06/22 08:42:46;;;;;;;1.55;1.27;;;26.20;61.90;;;;;;5028832;28;20033;-63
2023/06/22 08:45:12;;;;;;;2.47;1.50;;;26.40;61.90;;;;;;5029502;28;20051;-63
2023/06/22 08:47:38;;;;;;;1.30;1.20;;;26.50;61.80;;;;;;5029658;28;20067;-63
2023/06/22 08:50:05;;;;;;;2.83;1.48;;;26.50;61.50;;;;;;5029770;28;20026;-63
2023/06/22 08:52:31;;;;;;;2.53;1.30;;;26.60;61.40;;;;;;5026273;28;20041;-63
2023/06/22 08:54:58;;;;;;;1.30;1.08;;;26.60;61.30;;;;;;5011346;28;20105;-63
2023/06/22 08:57:23;;;;;;;1.58;1.48;;;26.70;61.30;;;;;;5011506;28;20056;-63
2023/06/22 08:59:52;;;;;;;1.63;1.40;;;26.80;60.80;;;;;;5029664;28;20033;-63
2023/06/22 09:02:17;;;;;;;1.90;1.33;;;26.80;60.80;;;;;;4995786;28;20116;-63
2023/06/22 09:04:43;;;;;;;1.63;1.20;;;26.70;60.70;;;;;;4994556;28;20173;-63
2023/06/22 09:07:09;;;;;;;2.00;1.20;;;26.80;60.50;;;;;;5029296;28;20034;-63
2023/06/22 09:09:34;;;;;;;1.88;1.38;;;26.80;60.30;;;;;;5029557;28;20036;-63
2023/06/22 09:12:00;;;;;;;1.85;1.33;;;26.80;60.20;;;;;;5027409;28;20040;-63
2023/06/22 09:14:26;;;;;;;1.10;1.00;;;26.90;60.10;;;;;;5029939;28;20026;-63
2023/06/22 09:16:51;;;;;;;1.45;1.25;;;27.00;59.80;;;;;;5029748;28;20037;-61
2023/06/22 09:19:17;;;;;;;1.35;1.05;;;27.20;59.80;;;;;;5028775;28;20116;-61
2023/06/22 09:21:43;;;;;;;1.27;1.17;;;27.40;59.50;;;;;;5010670;28;20038;-61
2023/06/22 09:24:08;;;;;;;1.67;1.20;;;27.60;59.00;;;;;;5029378;28;20048;-61
2023/06/22 09:26:34;;;;;;;2.28;1.25;;;27.70;58.50;;;;;;5029263;28;20033;-61
2023/06/22 09:29:00;;;;;;;4.75;1.45;;;27.80;58.40;;;;;;5011418;28;20025;-61
2023/06/22 09:31:26;;;;;;;2.53;1.30;;;27.80;58.10;;;;;;5025772;28;20464;-63
2023/06/22 09:33:53;;;;;;;1.27;1.17;;;27.70;58.00;;;;;;5029602;28;20017;-63
2023/06/22 09:36:19;;;;;;;1.33;1.13;;;27.70;57.90;;;;;;5011203;28;20029;-63
2023/06/22 09:38:44;;;;;;;1.27;1.15;;;27.70;58.00;;;;;;5010768;28;20052;-63
2023/06/22 09:41:10;;;;;;;0.95;0.93;;;27.70;57.70;;;;;;5007183;28;20034;-61
2023/06/22 09:43:36;;;;;;;1.45;1.35;;;27.70;57.70;;;;;;5028453;28;20033;-60
2023/06/22 09:46:02;;;;;;;1.17;1.08;;;27.70;57.40;;;;;;5029304;28;20338;-61
2023/06/22 09:48:29;;;;;;;2.15;1.25;;;27.60;57.50;;;;;;5021550;28;20026;-64
2023/06/22 09:50:55;;;;;;;1.23;1.13;;;27.60;57.70;;;;;;5027493;28;20473;-64
2023/06/22 09:53:20;;;;;;;1.02;0.90;;;27.60;57.80;;;;;;5026292;28;20053;-63
2023/06/22 09:55:46;;;;;;;1.83;1.25;;;27.60;57.70;;;;;;5011298;28;20053;-63
2023/06/22 09:58:12;;;;;;;1.77;1.08;;;27.50;57.70;;;;;;5025986;28;20041;-63
2023/06/22 10:00:38;;;;;;;1.00;0.90;;;27.40;57.80;;;;;;5028704;28;20045;-64
2023/06/22 10:03:03;;;;;;;1.73;1.38;;;27.40;57.80;;;;;;5029242;28;20039;-64
2023/06/22 10:05:29;;;;;;;0.90;0.90;;;27.40;57.90;;;;;;5028558;28;20029;-63
2023/06/22 10:07:55;;;;;;;2.13;1.08;;;27.30;57.70;;;;;;5027120;28;20029;-64
2023/06/22 10:10:20;;;;;;;1.05;1.02;;;27.20;57.70;;;;;;5027092;28;20542;-59
2023/06/22 10:12:48;;;;;;;1.30;1.08;;;27.10;57.60;;;;;;5026634;28;20028;-62
2023/06/22 10:15:14;;;;;;;2.13;1.52;;;27.10;57.70;;;;;;5007615;28;20029;-64
2023/06/22 10:17:40;;;;;;;2.63;1.27;;;27.00;57.60;;;;;;5027255;28;20385;-62
2023/06/22 10:20:11;;;;;;;1.20;1.10;;;26.90;57.70;;;;;;5027169;28;20033;-62
2023/06/22 10:22:38;;;;;;;1.00;1.00;;;26.90;57.80;;;;;;5026581;28;20120;-63
2023/06/22 10:25:04;;;;;;;1.35;1.20;;;26.80;57.60;;;;;;5023363;28;20405;-62
2023/06/22 10:27:31;;;;;;;0.90;0.90;;;26.80;57.80;;;;;;5009200;28;20034;-62
2023/06/22 10:29:57;;;;;;;1.27;1.17;;;26.80;57.90;;;;;;5028704;28;20061;-62
2023/06/22 10:32:22;;;;;;;1.48;1.25;;;26.80;57.90;;;;;;5021551;28;20079;-62
2023/06/22 10:34:48;;;;;;;0.70;0.70;;;26.80;57.90;;;;;;5024920;28;20053;-62
2023/06/22 10:37:13;;;;;;;1.77;1.38;;;26.80;57.90;;;;;;5025767;28;20037;-62
2023/06/22 10:39:39;;;;;;;0.88;0.88;;;26.80;57.80;;;;;;5018092;28;20072;-64
2023/06/22 10:42:05;;;;;;;1.25;1.08;;;26.80;57.70;;;;;;5024206;28;20108;-62
2023/06/22 10:44:31;;;;;;;1.27;0.95;;;26.90;57.80;;;;;;5025976;28;20041;-61
2023/06/22 10:46:56;;;;;;;1.55;1.17;;;26.90;57.80;;;;;;5022498;28;20091;-61
2023/06/22 10:49:22;;;;;;;0.93;0.90;;;26.90;57.80;;;;;;4994063;28;20124;-61
2023/06/22 10:51:48;;;;;;;1.52;0.90;;;26.90;57.80;;;;;;5021438;28;20030;-61
2023/06/22 10:54:13;;;;;;;1.65;1.55;;;26.90;57.70;;;;;;5027860;28;20029;-61
2023/06/22 10:56:40;;;;;;;1.23;1.13;;;27.00;57.90;;;;;;5027999;28;20045;-60
2023/06/22 10:59:06;;;;;;;1.60;1.33;;;27.00;57.60;;;;;;5028784;28;20468;-60
2023/06/22 11:01:33;;;;;;;2.92;1.17;;;27.00;57.60;;;;;;5028329;28;20131;-60
2023/06/22 11:03:59;;;;;;;1.20;1.10;;;26.90;57.70;;;;;;5028071;28;20076;-61
2023/06/22 11:06:24;;;;;;;1.52;1.33;;;26.90;57.80;;;;;;5028707;28;20037;-62
2023/06/22 11:08:50;;;;;;;1.17;0.98;;;26.90;57.70;;;;;;5026321;28;20076;-62
2023/06/22 11:11:17;;;;;;;1.55;1.42;;;26.90;57.80;;;;;;5026410;28;20116;-62
2023/06/22 11:13:43;;;;;;;3.30;1.27;;;26.80;57.80;;;;;;5028016;28;20100;-63
2023/06/22 11:16:10;;;;;;;1.42;1.27;;;26.80;57.90;;;;;;5028683;28;20552;-62
2023/06/22 11:18:36;;;;;;;1.90;1.05;;;26.80;58.00;;;;;;5027986;28;20017;-62
2023/06/22 11:21:02;;;;;;;0.90;0.90;;;26.80;58.00;;;;;;5010670;28;20036;-62
2023/06/22 11:23:28;;;;;;;1.40;1.27;;;26.80;58.00;;;;;;5027759;28;20045;-60
2023/06/22 11:25:54;;;;;;;2.40;1.80;;;26.80;58.30;;;;;;4994158;28;20033;-60
2023/06/22 11:28:20;;;;;;;1.25;1.15;;;26.80;59.00;;;;;;5028811;28;20492;-62
2023/06/22 11:30:46;;;;;;;1.30;1.20;;;26.70;59.30;;;;;;5030543;28;20028;-62
2023/06/22 11:33:11;;;;;;;2.25;1.38;;;26.60;59.80;;;;;;5031538;28;20037;-62
2023/06/22 11:35:37;;;;;;;1.05;1.05;;;26.50;60.60;;;;;;5032597;28;20052;-62
2023/06/22 11:38:04;;;;;;;1.40;1.30;;;26.40;61.30;;;;;;5032374;28;20033;-62
2023/06/22 11:40:30;;;;;;;2.28;1.70;;;26.30;61.80;;;;;;5014828;28;20025;-62
2023/06/22 11:42:56;;;;;;;2.05;1.80;;;26.20;62.40;;;;;;5031569;28;20463;-60
2023/06/22 11:45:22;;;;;;;2.13;1.92;;;26.10;62.70;;;;;;5032342;28;20396;-60
2023/06/22 11:47:47;;;;;;;1.52;1.20;;;26.00;63.10;;;;;;5031851;28;20101;-61
2023/06/22 11:50:13;;;;;;;2.97;2.08;;;25.90;64.10;;;;;;5032293;28;20029;-60
2023/06/22 11:52:39;;;;;;;1.40;1.30;;;25.80;64.30;;;;;;5030901;28;20029;-60
2023/06/22 11:55:06;;;;;;;1.30;1.00;;;25.60;64.40;;;;;;5026153;28;20045;-60
2023/06/22 11:57:37;;;;;;;1.60;1.50;;;25.60;64.60;;;;;;5011804;28;20149;-60
2023/06/22 12:00:23;;;;;;;2.80;2.03;;;25.50;64.80;;;;;;5031759;28;20544;-60
2023/06/22 12:02:51;;;;;;;1.80;1.10;;;25.40;64.70;;;;;;5029350;28;20376;-60
2023/06/22 12:05:18;;;;;;;1.83;1.73;;;25.40;65.10;;;;;;5013518;28;20029;-61
2023/06/22 12:07:43;;;;;;;2.35;1.98;;;25.30;65.40;;;;;;5029179;28;20048;-61
2023/06/22 12:10:09;;;;;;;1.63;1.40;;;25.30;66.00;;;;;;5013134;28;20025;-64
2023/06/22 12:12:35;;;;;;;3.50;2.03;;;25.20;66.70;;;;;;5028362;28;20029;-62
2023/06/22 12:15:03;;;;;;;1.92;1.70;;;25.20;67.40;;;;;;5029444;28;20030;-63
2023/06/22 12:17:29;;;;;;;2.13;1.90;;;25.10;67.70;;;;;;5030762;28;20111;-63
2023/06/22 12:19:55;;;;;;;2.50;1.90;;;25.10;68.30;;;;;;5013120;28;20040;-63
2023/06/22 12:22:21;;;;;;;2.70;1.88;;;25.00;68.60;;;;;;5029880;28;20342;-63
2023/06/22 12:24:47;;;;;;;1.95;1.70;;;24.90;69.00;;;;;;5030972;28;20033;-64
2023/06/22 12:27:16;;;;;;;2.83;2.08;;;24.80;69.90;;;;;;5029915;28;20037;-64
2023/06/22 12:29:42;;;;;;;3.42;2.25;;;24.70;70.30;;;;;;5030597;28;20041;-61
2023/06/22 12:32:07;;;;;;;2.58;1.95;;;24.60;70.80;;;;;;5030416;28;20029;-61
2023/06/22 12:34:33;;;;;;;1.95;1.75;;;24.50;71.30;;;;;;5030863;28;20489;-61
2023/06/22 12:36:59;;;;;;;1.80;1.70;;;24.50;71.60;;;;;;5030347;28;20025;-61
2023/06/22 12:39:24;;;;;;;1.70;1.60;;;24.50;72.00;;;;;;5012194;28;20033;-61
2023/06/22 12:41:50;;;;;;;1.90;1.73;;;24.50;72.20;;;;;;5029502;28;20029;-65
2023/06/22 12:44:15;;;;;;;1.88;1.52;;;24.50;72.60;;;;;;5030388;28;20456;-64
2023/06/22 12:46:41;;;;;;;4.28;1.73;;;24.50;72.80;;;;;;5025036;28;20036;-64